createdAt,value
2023-02-14T00:06:26.812Z,103430
2023-02-14T00:11:26.805Z,103420
2023-02-14T00:21:26.792Z,103420
2023-02-14T00:36:26.809Z,103410
2023-02-14T00:46:26.823Z,103410
2023-02-14T00:51:27.615Z,103410
2023-02-14T00:56:26.805Z,103410
2023-02-14T01:01:27.930Z,103410
2023-02-14T01:06:26.815Z,103410
2023-02-14T01:21:26.828Z,103410
2023-02-14T01:26:26.842Z,103420
2023-02-14T01:31:27.008Z,103410
2023-02-14T01:36:26.824Z,103410
2023-02-14T01:41:26.813Z,103400
2023-02-14T01:46:26.802Z,103400
2023-02-14T01:51:28.192Z,103410
2023-02-14T02:06:26.857Z,103410
2023-02-14T02:11:27.073Z,103400
2023-02-14T02:16:28.114Z,103390
2023-02-14T02:36:26.836Z,103380
2023-02-14T02:41:26.871Z,103380
2023-02-14T02:46:26.911Z,103380
2023-02-14T02:51:26.851Z,103380
2023-02-14T02:56:26.827Z,103380
2023-02-14T03:01:26.899Z,103380
2023-02-14T03:06:26.866Z,103380
2023-02-14T03:11:26.845Z,103380
2023-02-14T03:16:26.853Z,103380
2023-02-14T03:21:26.861Z,103380
2023-02-14T03:26:26.868Z,103380
2023-02-14T03:31:26.974Z,103370
2023-02-14T03:41:26.875Z,103370
2023-02-14T03:46:26.891Z,103360
2023-02-14T03:51:26.840Z,103360
2023-02-14T03:56:26.872Z,103370
2023-02-14T04:01:26.930Z,103370
2023-02-14T04:06:26.871Z,103380
2023-02-14T04:11:26.878Z,103370
2023-02-14T04:16:28.241Z,103380
2023-02-14T04:21:26.852Z,103380
2023-02-14T04:26:26.872Z,103380
2023-02-14T04:31:26.982Z,103380
2023-02-14T04:36:26.902Z,103380
2023-02-14T04:41:27.075Z,103380
2023-02-14T04:46:26.910Z,103380
2023-02-14T04:51:27.628Z,103370
2023-02-14T04:56:26.877Z,103370
2023-02-14T05:01:27.914Z,103360
2023-02-14T05:06:28.255Z,103360
2023-02-14T05:11:26.860Z,103360
2023-02-14T05:21:26.875Z,103340
2023-02-14T05:26:26.861Z,103350
2023-02-14T05:36:26.871Z,103340
2023-02-14T05:41:26.863Z,103330
2023-02-14T05:46:26.858Z,103340
2023-02-14T05:51:26.912Z,103350
2023-02-14T06:01:26.890Z,103350
2023-02-14T06:06:26.888Z,103350
2023-02-14T06:11:26.871Z,103360
2023-02-14T06:21:26.909Z,103350
2023-02-14T06:26:26.893Z,103350
2023-02-14T06:31:27.034Z,103350
2023-02-14T06:36:26.912Z,103350
2023-02-14T06:41:26.893Z,103360
2023-02-14T06:51:26.920Z,103360
2023-02-14T06:56:26.908Z,103360
2023-02-14T07:01:26.968Z,103370
2023-02-14T07:06:26.921Z,103370
2023-02-14T07:07:25.323Z,103370
2023-02-14T07:11:26.893Z,103370
2023-02-14T07:16:26.884Z,103380
2023-02-14T07:21:26.906Z,103390
2023-02-14T07:31:26.994Z,103380
2023-02-14T07:36:26.903Z,103370
2023-02-14T07:41:26.908Z,103380
2023-02-14T07:46:26.946Z,103380
2023-02-14T07:51:26.948Z,103390
2023-02-14T07:53:15.390Z,103390
2023-02-14T07:56:26.918Z,103390
2023-02-14T08:06:26.910Z,103390
2023-02-14T08:11:26.905Z,103380
2023-02-14T08:16:26.964Z,103380
2023-02-14T08:21:26.970Z,103380
2023-02-14T08:26:26.917Z,103380
2023-02-14T08:36:26.923Z,103370
2023-02-14T08:41:26.919Z,103370
2023-02-14T08:46:26.958Z,103380
2023-02-14T08:51:40.271Z,103370
2023-02-14T08:56:26.976Z,103370
2023-02-14T09:01:27.086Z,103370
2023-02-14T09:06:26.982Z,103360
2023-02-14T09:11:26.921Z,103360
2023-02-14T09:16:27.001Z,103360
2023-02-14T09:21:27.031Z,103360
2023-02-14T09:26:26.926Z,103360
2023-02-14T09:31:27.107Z,103350
2023-02-14T09:36:26.929Z,103350
2023-02-14T09:41:26.926Z,103340
2023-02-14T09:46:26.935Z,103340
2023-02-14T09:51:26.945Z,103340
2023-02-14T09:56:26.960Z,103330
2023-02-14T10:01:27.070Z,103340
2023-02-14T10:06:26.982Z,103340
2023-02-14T10:11:26.939Z,103320
2023-02-14T10:16:27.324Z,103310
2023-02-14T10:21:26.922Z,103290
2023-02-14T10:26:27.102Z,103290
2023-02-14T10:31:27.067Z,103290
2023-02-14T10:36:26.930Z,103290
2023-02-14T10:41:26.921Z,103300
2023-02-14T10:46:27.016Z,103290
2023-02-14T10:51:26.990Z,103290
2023-02-14T10:56:26.960Z,103290
2023-02-14T11:01:27.013Z,103290
2023-02-14T11:06:26.942Z,103280
2023-02-14T11:11:26.946Z,103270
2023-02-14T11:16:26.984Z,103270
2023-02-14T11:21:26.956Z,103260
2023-02-14T11:26:26.949Z,103260
2023-02-14T11:31:27.049Z,103260
2023-02-14T11:36:27.047Z,103250
2023-02-14T11:41:26.966Z,103240
2023-02-14T11:46:27.076Z,103230
2023-02-14T11:51:26.955Z,103220
2023-02-14T11:56:26.960Z,103220
2023-02-14T12:01:28.046Z,103230
2023-02-14T12:06:26.995Z,103220
2023-02-14T12:11:26.989Z,103210
2023-02-14T12:16:28.281Z,103210
2023-02-14T12:21:26.942Z,103200
2023-02-14T12:26:37.067Z,103170
2023-02-14T12:31:27.112Z,103170
2023-02-14T12:36:26.997Z,103170
2023-02-14T12:41:26.995Z,103170
2023-02-14T12:51:26.962Z,103160
2023-02-14T12:56:26.964Z,103160
2023-02-14T13:01:29.248Z,103150
2023-02-14T13:11:26.979Z,103140
2023-02-14T13:16:28.382Z,103130
2023-02-14T13:26:27.288Z,103120
2023-02-14T13:31:27.578Z,103110
2023-02-14T13:36:27.446Z,103110
2023-02-14T13:41:26.976Z,103100
2023-02-14T13:46:27.122Z,103090
2023-02-14T13:51:27.038Z,103090
2023-02-14T14:08:59.648Z,103070
2023-02-14T14:13:59.652Z,103070
2023-02-14T14:18:59.655Z,103070
2023-02-14T14:23:59.674Z,103070
2023-02-14T14:28:59.656Z,103070
2023-02-14T14:33:59.667Z,103060
2023-02-14T14:38:59.690Z,103060
2023-02-14T14:43:59.690Z,103050
2023-02-14T14:48:59.686Z,103050
2023-02-14T14:53:59.671Z,103040
2023-02-14T14:58:59.659Z,103030
2023-02-14T15:03:59.697Z,103030
2023-02-14T15:08:59.668Z,103030
2023-02-14T15:13:59.668Z,103020
2023-02-14T15:18:59.675Z,103020
2023-02-14T15:23:59.663Z,103020
2023-02-14T15:28:59.695Z,103030
2023-02-14T15:33:59.692Z,103020
2023-02-14T15:38:59.715Z,103030
2023-02-14T15:44:00.775Z,103030
2023-02-14T15:53:59.723Z,103030
2023-02-14T16:13:59.692Z,103020
2023-02-14T16:18:59.674Z,103020
2023-02-14T16:23:59.683Z,103020
2023-02-14T16:28:59.774Z,103020
2023-02-14T16:34:00.966Z,103020
2023-02-14T16:38:59.670Z,103010
2023-02-14T16:43:59.674Z,103020
2023-02-14T16:48:59.725Z,103020
2023-02-14T16:53:59.720Z,103020
2023-02-14T17:03:59.683Z,103020
2023-02-14T17:08:59.698Z,103020
2023-02-14T17:23:59.723Z,103020
2023-02-14T17:28:59.708Z,103020
2023-02-14T17:33:59.726Z,103030
2023-02-14T17:38:59.725Z,103040
2023-02-14T17:43:59.736Z,103040
2023-02-14T17:48:59.740Z,103050
2023-02-14T17:53:59.751Z,103050
2023-02-14T18:03:59.716Z,103050
2023-02-14T18:08:59.760Z,103050
2023-02-14T18:13:59.800Z,103050
2023-02-14T18:18:59.767Z,103050
2023-02-14T18:28:59.751Z,103030
2023-02-14T18:33:59.742Z,103030
2023-02-14T18:38:59.712Z,103030
2023-02-14T18:48:59.727Z,103020
2023-02-14T18:53:59.760Z,103010
2023-02-14T18:58:59.739Z,103010
2023-02-14T19:03:59.766Z,103010
2023-02-14T19:08:59.730Z,103010
2023-02-14T19:18:59.776Z,102990
2023-02-14T19:29:01.079Z,102990
2023-02-14T19:33:59.808Z,102990
2023-02-14T19:38:59.776Z,102980
2023-02-14T19:43:59.729Z,102980
2023-02-14T19:48:59.774Z,102980
2023-02-14T19:58:59.848Z,102980
2023-02-14T20:03:59.766Z,102970
2023-02-14T20:08:59.766Z,102970
2023-02-14T20:14:01.134Z,102960
2023-02-14T20:18:59.740Z,102960
2023-02-14T20:23:59.763Z,102960
2023-02-14T20:28:59.782Z,102960
2023-02-14T20:33:59.764Z,102960
2023-02-14T20:38:59.752Z,102960
2023-02-14T20:43:59.762Z,102950
2023-02-14T20:48:59.786Z,102950
2023-02-14T20:53:59.805Z,102950
2023-02-14T20:58:59.780Z,102950
2023-02-14T21:08:59.759Z,102940
2023-02-14T21:14:00.143Z,102940
2023-02-14T21:18:59.822Z,102940
2023-02-14T21:28:59.793Z,102930
2023-02-14T21:33:59.788Z,102920
2023-02-14T21:43:59.783Z,102910
2023-02-14T21:48:59.776Z,102910
2023-02-14T21:53:59.773Z,102910
2023-02-14T21:58:59.776Z,102910
2023-02-14T22:03:59.834Z,102900
2023-02-14T22:08:59.806Z,102900
2023-02-14T22:13:59.811Z,102890
2023-02-14T22:18:59.767Z,102890
2023-02-14T22:23:59.805Z,102900
2023-02-14T22:28:59.813Z,102900
2023-02-14T22:33:59.800Z,102900
2023-02-14T22:38:59.792Z,102890
2023-02-14T22:43:59.775Z,102890
2023-02-14T22:49:01.186Z,102890
2023-02-14T22:53:59.818Z,102900
2023-02-14T22:58:59.803Z,102900
2023-02-14T23:03:59.793Z,102900
2023-02-14T23:08:59.779Z,102890
2023-02-14T23:13:59.813Z,102890
2023-02-14T23:18:59.845Z,102890
2023-02-14T23:23:59.806Z,102890
2023-02-14T23:29:00.156Z,102890
2023-02-14T23:33:59.828Z,102890
2023-02-14T23:38:59.837Z,102880
2023-02-14T23:43:59.828Z,102890
2023-02-14T23:48:59.845Z,102890
2023-02-14T23:53:59.823Z,102890
2023-02-14T23:58:59.791Z,102890
